Time;durP1;ratioP1;P1;durP2;ratioP2;P2;SDS_P1;SDS_P2;PMS_P1;PMS_P2;Temp;Humidity;BMP_temperature;BMP_pressure;BME280_temperature;BME280_humidity;BME280_pressure;Samples;Min_cycle;Max_cycle;Signal;HPM_P1;HPM_P2
2022/04/05 03:02:16;;;;;;;9.95;2.25;;;6.70;99.90;;;;;;5222662;23;20045;-83
2022/04/05 03:04:42;;;;;;;8.30;1.77;;;6.60;99.90;;;;;;5039369;28;20381;-84
2022/04/05 03:07:08;;;;;;;6.22;1.77;;;6.70;99.90;;;;;;5056369;28;20048;-84
2022/04/05 03:09:33;;;;;;;5.47;2.03;;;6.70;99.90;;;;;;5056665;28;20064;-83
2022/04/05 03:11:59;;;;;;;8.23;2.13;;;6.70;99.90;;;;;;5057727;28;20334;-85
2022/04/05 03:14:25;;;;;;;6.00;1.67;;;6.70;99.90;;;;;;5056588;28;20124;-83
2022/04/05 03:16:50;;;;;;;9.45;2.25;;;6.70;99.90;;;;;;5057901;28;20044;-82
2022/04/05 03:19:16;;;;;;;6.22;1.77;;;6.70;99.90;;;;;;5056132;28;20512;-84
2022/04/05 03:21:41;;;;;;;7.25;1.55;;;6.70;99.90;;;;;;5056318;28;20037;-85
2022/04/05 03:24:08;;;;;;;7.38;1.60;;;6.70;99.90;;;;;;5057691;28;20072;-86
2022/04/05 03:26:34;;;;;;;9.10;2.00;;;6.70;99.90;;;;;;5039109;28;20494;-84
2022/04/05 03:29:00;;;;;;;10.45;2.17;;;6.80;99.90;;;;;;5055380;28;20041;-85
2022/04/05 03:31:25;;;;;;;8.90;1.45;;;6.70;99.90;;;;;;5055864;28;20098;-85
2022/04/05 03:33:51;;;;;;;11.48;3.22;;;6.70;99.90;;;;;;5039284;28;20045;-84
2022/04/05 03:36:16;;;;;;;7.72;1.77;;;6.70;99.90;;;;;;5055758;28;20037;-85
2022/04/05 03:38:42;;;;;;;10.32;1.77;;;6.70;99.90;;;;;;5056090;28;20045;-85
2022/04/05 03:41:09;;;;;;;5.63;1.90;;;6.70;99.90;;;;;;5055419;28;20084;-84
2022/04/05 03:43:34;;;;;;;8.57;1.67;;;6.70;99.90;;;;;;5055647;28;20040;-85
2022/04/05 03:46:00;;;;;;;7.10;1.52;;;6.80;99.90;;;;;;5055734;28;20037;-86
2022/04/05 03:48:26;;;;;;;7.03;1.40;;;6.70;99.90;;;;;;5053983;28;20048;-84
2022/04/05 03:50:52;;;;;;;6.50;1.70;;;6.70;99.90;;;;;;5056507;28;20112;-83
2022/04/05 03:53:17;;;;;;;4.03;1.35;;;6.70;99.90;;;;;;5056665;28;20036;-84
2022/04/05 03:55:43;;;;;;;7.20;1.58;;;6.70;99.90;;;;;;5039048;28;20119;-83
2022/04/05 03:58:12;;;;;;;6.28;1.50;;;6.70;99.90;;;;;;5038791;28;20087;-84
2022/04/05 04:00:38;;;;;;;10.02;1.50;;;6.70;99.90;;;;;;5054969;28;20045;-85
2022/04/05 04:03:04;;;;;;;3.83;1.30;;;6.70;99.90;;;;;;5056463;28;20085;-86
2022/04/05 04:05:30;;;;;;;8.27;1.58;;;6.70;99.90;;;;;;5038336;28;20059;-85
2022/04/05 04:07:56;;;;;;;8.98;1.60;;;6.70;99.90;;;;;;5056241;28;20132;-85
2022/04/05 04:10:21;;;;;;;8.43;1.70;;;6.70;99.90;;;;;;5056647;28;20142;-85
2022/04/05 04:12:47;;;;;;;8.23;1.40;;;6.70;99.90;;;;;;5038673;28;20400;-86
2022/04/05 04:15:12;;;;;;;6.80;1.83;;;6.70;99.90;;;;;;5056437;28;20029;-84
2022/04/05 04:17:38;;;;;;;6.60;1.65;;;6.70;99.90;;;;;;5055267;28;20574;-85
2022/04/05 04:20:05;;;;;;;11.27;1.83;;;6.70;99.90;;;;;;5056848;28;20075;-87
2022/04/05 04:22:31;;;;;;;8.68;2.03;;;6.70;99.90;;;;;;5055568;28;20453;-86
2022/04/05 04:24:57;;;;;;;8.50;1.42;;;6.60;99.90;;;;;;5054983;28;20068;-87
2022/04/05 04:27:24;;;;;;;6.35;1.42;;;6.70;99.90;;;;;;5056723;28;20049;-86
2022/04/05 04:29:50;;;;;;;7.70;1.45;;;6.60;99.90;;;;;;5055201;28;20045;-85
2022/04/05 04:32:16;;;;;;;7.85;1.33;;;6.60;99.90;;;;;;5054864;28;20041;-85
2022/04/05 04:34:41;;;;;;;8.20;1.40;;;6.60;99.90;;;;;;5056202;28;20086;-85
2022/04/05 04:37:07;;;;;;;5.18;1.42;;;6.60;99.90;;;;;;5054413;28;20037;-84
2022/04/05 04:39:33;;;;;;;7.68;2.05;;;6.60;99.90;;;;;;5054919;28;20072;-85
2022/04/05 04:42:00;;;;;;;8.25;1.45;;;6.60;99.90;;;;;;5054835;28;20032;-86
2022/04/05 04:44:26;;;;;;;8.35;1.30;;;6.60;99.90;;;;;;5054591;28;20041;-84
2022/04/05 04:46:52;;;;;;;6.60;1.42;;;6.60;99.90;;;;;;5054516;28;20087;-85
2022/04/05 04:49:18;;;;;;;8.70;1.95;;;6.60;99.90;;;;;;5054194;28;20083;-83
2022/04/05 04:51:43;;;;;;;8.10;1.88;;;6.60;99.90;;;;;;5055037;28;20044;-84
2022/04/05 04:54:09;;;;;;;7.95;2.30;;;6.60;99.90;;;;;;5054654;28;20025;-86
2022/04/05 04:56:34;;;;;;;7.35;1.40;;;6.60;99.90;;;;;;5037935;28;20045;-84
2022/04/05 04:59:00;;;;;;;10.63;1.52;;;6.60;99.90;;;;;;5056100;28;20385;-86
2022/04/05 05:01:26;;;;;;;9.07;1.90;;;6.60;99.90;;;;;;5053758;28;20483;-83
2022/04/05 05:03:51;;;;;;;4.57;1.30;;;6.60;99.90;;;;;;5038166;28;20083;-85
2022/04/05 05:06:17;;;;;;;7.20;1.30;;;6.60;99.90;;;;;;5055271;28;20029;-86
2022/04/05 05:08:44;;;;;;;8.70;1.33;;;6.60;99.90;;;;;;5053882;28;20546;-85
2022/04/05 05:11:10;;;;;;;7.35;1.52;;;6.60;99.90;;;;;;5054154;28;20123;-85
2022/04/05 05:13:37;;;;;;;6.88;1.60;;;6.50;99.90;;;;;;5054074;28;20033;-84
2022/04/05 05:16:03;;;;;;;7.65;1.15;;;6.60;99.90;;;;;;5054509;28;20059;-81
2022/04/05 05:18:29;;;;;;;8.07;1.35;;;6.50;99.90;;;;;;5037581;28;20502;-84
2022/04/05 05:20:55;;;;;;;5.88;1.35;;;6.50;99.90;;;;;;5037433;28;20123;-83
2022/04/05 05:23:21;;;;;;;7.38;1.50;;;6.60;99.90;;;;;;5053594;28;20072;-84
2022/04/05 05:25:47;;;;;;;8.85;1.58;;;6.60;99.90;;;;;;5037433;28;20044;-86
2022/04/05 05:28:13;;;;;;;8.15;1.50;;;6.50;99.90;;;;;;5053979;28;20048;-83
2022/04/05 05:30:39;;;;;;;2.55;1.10;;;6.60;99.90;;;;;;5055311;28;20076;-85
2022/04/05 05:33:05;;;;;;;8.77;1.75;;;6.50;99.90;;;;;;5055236;28;20051;-83
2022/04/05 05:35:31;;;;;;;6.60;1.33;;;6.50;99.90;;;;;;5037864;28;20083;-84
2022/04/05 05:37:57;;;;;;;9.85;1.17;;;6.50;99.90;;;;;;5053726;28;20504;-84
2022/04/05 05:40:24;;;;;;;3.50;0.93;;;6.50;99.90;;;;;;5054189;28;20108;-84
2022/04/05 05:42:53;;;;;;;8.23;1.23;;;6.50;99.90;;;;;;5055245;28;20433;-84
2022/04/05 05:45:20;;;;;;;4.35;1.20;;;6.60;99.90;;;;;;5055604;28;20111;-84
2022/04/05 05:47:46;;;;;;;4.35;1.30;;;6.50;99.90;;;;;;5036668;28;20045;-85
2022/04/05 05:50:13;;;;;;;7.72;1.10;;;6.50;99.90;;;;;;5054967;28;20040;-83
2022/04/05 05:52:40;;;;;;;3.30;0.90;;;6.60;99.90;;;;;;5037675;28;20080;-84
2022/04/05 05:55:07;;;;;;;5.07;1.33;;;6.50;99.90;;;;;;5055423;28;20041;-83
2022/04/05 05:57:33;;;;;;;4.47;1.20;;;6.50;99.90;;;;;;5037352;28;20120;-82
2022/04/05 05:59:59;;;;;;;4.93;1.20;;;6.60;99.90;;;;;;5057387;28;20099;-83
2022/04/05 06:02:25;;;;;;;4.25;1.30;;;6.60;99.90;;;;;;5065634;28;20041;-82
2022/04/05 06:04:50;;;;;;;8.50;2.55;;;6.60;99.90;;;;;;5048120;28;20045;-84
2022/04/05 06:07:16;;;;;;;3.28;1.10;;;6.60;99.90;;;;;;5073329;28;20095;-83
2022/04/05 06:09:42;;;;;;;5.30;1.00;;;6.60;99.90;;;;;;5072326;28;20043;-84
2022/04/05 06:12:08;;;;;;;10.38;2.25;;;6.60;99.90;;;;;;5073786;28;20067;-83
2022/04/05 06:14:33;;;;;;;5.25;1.20;;;6.60;99.90;;;;;;5070915;28;20067;-85
2022/04/05 06:16:59;;;;;;;5.88;1.58;;;6.60;99.90;;;;;;5065708;28;20124;-84
2022/04/05 06:19:24;;;;;;;6.78;1.60;;;6.60;99.90;;;;;;5062812;28;20045;-85
2022/04/05 06:21:50;;;;;;;5.00;1.45;;;6.60;99.90;;;;;;5041324;28;20041;-85
2022/04/05 06:24:15;;;;;;;6.25;1.50;;;6.70;99.90;;;;;;5054791;28;20033;-82
2022/04/05 06:26:41;;;;;;;7.53;2.03;;;6.70;99.90;;;;;;5053086;28;20076;-85
2022/04/05 06:29:07;;;;;;;6.35;1.65;;;6.70;99.90;;;;;;5053243;28;20041;-84
2022/04/05 06:31:32;;;;;;;6.03;1.60;;;6.80;99.90;;;;;;5053050;28;20045;-84
2022/04/05 06:33:58;;;;;;;4.53;1.50;;;6.80;99.90;;;;;;5053510;28;20515;-84
2022/04/05 06:36:24;;;;;;;7.88;1.60;;;6.90;99.90;;;;;;5052900;28;20045;-84
2022/04/05 06:38:50;;;;;;;3.35;1.23;;;7.00;99.90;;;;;;5036516;28;20043;-85
2022/04/05 06:41:15;;;;;;;6.80;1.83;;;7.00;99.90;;;;;;5052438;28;20388;-84
2022/04/05 06:43:41;;;;;;;7.30;2.05;;;7.00;99.90;;;;;;5052278;28;20083;-83
2022/04/05 06:46:07;;;;;;;8.95;1.77;;;7.00;99.90;;;;;;5054029;28;20035;-84
2022/04/05 06:48:32;;;;;;;6.63;1.20;;;7.00;99.90;;;;;;5053343;28;20060;-85
2022/04/05 06:50:59;;;;;;;4.07;1.40;;;7.10;99.90;;;;;;5053049;28;20029;-86
2022/04/05 06:53:25;;;;;;;5.45;1.10;;;7.00;99.90;;;;;;5054456;28;20055;-85
2022/04/05 06:55:50;;;;;;;5.22;1.20;;;7.10;99.90;;;;;;5054108;28;20033;-84
2022/04/05 06:58:16;;;;;;;4.53;1.30;;;7.10;99.90;;;;;;5053589;28;20071;-84
2022/04/05 07:00:41;;;;;;;5.10;1.40;;;7.10;99.90;;;;;;5035845;28;20033;-84
2022/04/05 07:03:07;;;;;;;6.47;1.30;;;7.10;99.90;;;;;;5035953;28;20033;-85
2022/04/05 07:05:33;;;;;;;5.60;1.60;;;7.10;99.90;;;;;;5052237;28;20041;-85
2022/04/05 07:07:59;;;;;;;2.30;1.10;;;7.10;99.90;;;;;;5036928;28;20036;-84
2022/04/05 07:10:25;;;;;;;7.55;1.80;;;7.20;99.90;;;;;;5052397;28;20497;-84
2022/04/05 07:12:51;;;;;;;4.15;1.60;;;7.10;99.90;;;;;;5052679;28;20120;-84
2022/04/05 07:15:17;;;;;;;5.45;1.52;;;7.10;99.90;;;;;;5036411;28;20385;-83
2022/04/05 07:17:43;;;;;;;7.25;1.98;;;7.20;99.90;;;;;;5054280;28;20045;-83
2022/04/05 07:20:10;;;;;;;7.45;1.75;;;7.20;99.90;;;;;;5052333;28;20047;-84
2022/04/05 07:22:49;;;;;;;8.07;2.08;;;7.20;99.90;;;;;;5052790;28;20638;-83
2022/04/05 07:25:16;;;;;;;7.50;1.92;;;7.20;99.90;;;;;;5056272;28;20045;-83
2022/04/05 07:27:44;;;;;;;2.78;1.10;;;7.20;99.90;;;;;;5056670;28;20159;-84
2022/04/05 07:30:10;;;;;;;3.75;1.10;;;7.20;99.90;;;;;;5057385;28;20477;-84
2022/04/05 07:32:44;;;;;;;4.05;1.30;;;7.20;99.90;;;;;;5057127;28;20045;-83
2022/04/05 07:35:11;;;;;;;5.63;1.55;;;7.20;99.90;;;;;;5057996;28;20041;-83
2022/04/05 07:37:37;;;;;;;3.35;1.33;;;7.10;99.90;;;;;;5057173;28;20054;-83
2022/04/05 07:40:10;;;;;;;4.50;1.10;;;7.10;99.90;;;;;;5040568;28;20427;-84
2022/04/05 07:42:37;;;;;;;7.20;1.33;;;7.00;99.90;;;;;;5056678;28;20480;-84
2022/04/05 07:45:04;;;;;;;3.92;1.08;;;7.10;99.90;;;;;;5056980;28;20037;-84
2022/04/05 07:47:30;;;;;;;3.70;1.45;;;7.10;99.90;;;;;;5056555;28;20045;-84
2022/04/05 07:49:55;;;;;;;5.60;1.05;;;7.10;99.90;;;;;;5057946;28;20047;-85
2022/04/05 07:52:21;;;;;;;4.82;2.10;;;7.10;99.90;;;;;;5039341;28;20043;-84
2022/04/05 07:54:47;;;;;;;3.88;1.38;;;7.20;99.90;;;;;;5055470;28;20123;-84
2022/04/05 07:57:13;;;;;;;5.70;1.45;;;7.20;99.90;;;;;;5039226;28;20051;-85
2022/04/05 07:59:39;;;;;;;3.30;1.42;;;7.20;99.90;;;;;;5055769;28;20049;-86
2022/04/05 08:02:05;;;;;;;4.15;1.83;;;7.30;99.90;;;;;;5039122;28;20064;-85
2022/04/05 08:04:31;;;;;;;5.28;2.22;;;7.30;99.90;;;;;;5055729;28;20041;-86
2022/04/05 08:06:57;;;;;;;4.97;1.65;;;7.40;99.90;;;;;;5039098;28;20078;-85
2022/04/05 08:09:22;;;;;;;4.68;1.65;;;7.40;99.90;;;;;;5055876;28;20041;-85
2022/04/05 08:11:48;;;;;;;3.10;1.60;;;7.40;99.90;;;;;;5057468;28;20036;-84
2022/04/05 08:14:14;;;;;;;4.63;1.70;;;7.40;99.90;;;;;;5057390;28;20048;-85
2022/04/05 08:16:40;;;;;;;3.83;1.50;;;7.40;99.90;;;;;;5055348;28;20077;-82
2022/04/05 08:19:06;;;;;;;4.82;1.60;;;7.50;99.90;;;;;;5056668;28;20037;-84
2022/04/05 08:21:33;;;;;;;5.20;1.80;;;7.50;99.90;;;;;;5057211;28;20519;-84
2022/04/05 08:23:58;;;;;;;4.05;1.83;;;7.50;99.90;;;;;;5057038;28;20043;-84
2022/04/05 08:26:24;;;;;;;3.75;1.88;;;7.60;99.90;;;;;;5039400;28;20123;-84
2022/04/05 08:28:50;;;;;;;5.15;1.95;;;7.70;99.90;;;;;;5057131;28;20087;-83
2022/04/05 08:31:19;;;;;;;3.00;2.20;;;7.70;99.90;;;;;;5056827;28;20059;-85
2022/04/05 08:33:44;;;;;;;3.65;2.00;;;7.70;99.90;;;;;;5055456;28;20033;-86
2022/04/05 08:36:10;;;;;;;3.55;1.88;;;7.80;99.90;;;;;;5054509;28;20162;-85
2022/04/05 08:38:36;;;;;;;3.83;1.67;;;7.70;99.90;;;;;;5055513;28;20419;-84
2022/04/05 08:41:04;;;;;;;6.35;1.80;;;7.70;99.90;;;;;;5054645;28;20082;-83
2022/04/05 08:43:30;;;;;;;4.65;1.52;;;7.80;99.90;;;;;;5055163;28;20150;-85
2022/04/05 08:46:00;;;;;;;3.50;1.60;;;7.80;99.90;;;;;;5038746;28;20484;-85
2022/04/05 08:48:28;;;;;;;3.72;1.70;;;7.80;99.90;;;;;;5038574;28;20503;-85
2022/04/05 08:50:55;;;;;;;3.20;1.65;;;7.90;99.90;;;;;;5038901;28;20041;-84
2022/04/05 08:53:21;;;;;;;2.70;1.40;;;7.90;99.90;;;;;;5038719;28;20045;-84
2022/04/05 08:55:46;;;;;;;2.65;1.40;;;7.90;99.90;;;;;;5056758;28;20048;-84
2022/04/05 08:58:16;;;;;;;2.03;0.90;;;8.00;99.90;;;;;;5056599;28;20120;-84
2022/04/05 09:00:42;;;;;;;2.25;1.00;;;8.00;99.90;;;;;;5055253;28;20049;-84
2022/04/05 09:03:07;;;;;;;1.40;0.80;;;8.10;99.90;;;;;;5038933;28;20362;-85
2022/04/05 09:05:35;;;;;;;2.83;1.02;;;8.10;99.90;;;;;;5056218;28;20163;-84
2022/04/05 09:08:30;;;;;;;1.67;0.70;;;8.20;99.90;;;;;;5055162;28;20045;-83
2022/04/05 09:11:08;;;;;;;2.13;0.85;;;8.30;99.90;;;;;;5055223;28;20048;-85
2022/04/05 09:13:34;;;;;;;1.92;1.00;;;8.20;99.90;;;;;;5055098;28;20499;-84
2022/04/05 09:16:04;;;;;;;1.83;1.02;;;8.20;99.90;;;;;;5054986;28;20560;-84
2022/04/05 09:18:39;;;;;;;1.80;0.63;;;8.30;99.90;;;;;;5055596;28;20136;-84
2022/04/05 09:21:07;;;;;;;2.40;0.90;;;8.40;99.90;;;;;;5244942;22;20128;-85
2022/04/05 09:23:35;;;;;;;1.25;0.73;;;8.40;99.90;;;;;;5054630;28;20043;-85
2022/04/05 09:26:04;;;;;;;1.40;0.80;;;8.40;99.90;;;;;;5054869;28;20052;-82
2022/04/05 09:28:33;;;;;;;1.83;0.80;;;8.40;99.90;;;;;;5054127;28;20102;-84
2022/04/05 09:31:01;;;;;;;3.65;1.70;;;8.40;99.90;;;;;;5053799;28;20492;-85
2022/04/05 09:33:29;;;;;;;1.10;0.70;;;8.40;99.90;;;;;;5054623;28;20049;-86
2022/04/05 09:36:13;;;;;;;2.72;0.80;;;8.50;99.90;;;;;;5054974;28;20396;-86
2022/04/05 09:38:40;;;;;;;1.77;0.90;;;8.60;99.90;;;;;;5055968;28;20048;-82
2022/04/05 09:41:11;;;;;;;2.17;0.88;;;8.60;99.90;;;;;;5054603;28;20384;-85
2022/04/05 09:43:37;;;;;;;2.55;1.35;;;8.60;99.90;;;;;;5037426;28;20045;-86
2022/04/05 09:46:03;;;;;;;3.88;1.55;;;8.60;99.90;;;;;;5054447;28;20091;-84
2022/04/05 09:48:35;;;;;;;2.90;1.20;;;8.70;99.90;;;;;;5054309;28;20045;-83
2022/04/05 09:51:08;;;;;;;3.67;1.85;;;8.70;99.90;;;;;;5054627;28;20071;-84
2022/04/05 09:53:39;;;;;;;2.70;1.50;;;8.70;99.90;;;;;;5054186;28;20124;-84
2022/04/05 09:56:11;;;;;;;3.15;1.80;;;8.70;99.90;;;;;;5037640;28;20040;-84
2022/04/05 09:58:44;;;;;;;3.58;2.05;;;8.70;99.90;;;;;;5054178;28;20542;-85
2022/04/05 10:01:11;;;;;;;6.80;2.50;;;8.70;99.90;;;;;;5054210;28;20488;-85
2022/04/05 10:03:42;;;;;;;5.07;2.70;;;8.70;99.90;;;;;;5054026;28;20033;-85
2022/04/05 10:06:09;;;;;;;4.72;2.55;;;8.80;99.90;;;;;;5037768;28;20473;-84
2022/04/05 10:08:36;;;;;;;5.15;3.03;;;8.80;99.90;;;;;;5053581;28;20052;-85
2022/04/05 10:11:04;;;;;;;5.22;2.90;;;8.80;99.90;;;;;;5052762;28;20048;-83
2022/04/05 10:13:30;;;;;;;6.05;3.47;;;8.90;99.90;;;;;;5053414;28;20045;-85
2022/04/05 10:15:58;;;;;;;6.00;3.05;;;8.90;99.90;;;;;;5053503;28;20047;-84
2022/04/05 10:18:30;;;;;;;6.28;3.20;;;8.90;99.90;;;;;;5053981;28;20049;-84
2022/04/05 10:20:58;;;;;;;6.05;3.25;;;9.00;99.90;;;;;;5060974;28;20056;-84
2022/04/05 10:23:23;;;;;;;9.52;4.38;;;9.10;99.90;;;;;;5072563;28;20056;-83
2022/04/05 10:25:51;;;;;;;8.98;3.92;;;9.20;99.90;;;;;;5051640;28;20041;-83
2022/04/05 10:28:31;;;;;;;5.43;3.13;;;9.40;99.90;;;;;;5056199;28;20052;-85
2022/04/05 10:31:17;;;;;;;5.10;2.75;;;9.60;99.90;;;;;;5054763;28;20154;-83
2022/04/05 10:34:03;;;;;;;6.30;3.53;;;9.80;99.90;;;;;;5053759;28;20036;-84
2022/04/05 10:36:28;;;;;;;5.22;3.10;;;9.90;99.90;;;;;;5053408;28;20392;-84
2022/04/05 10:39:13;;;;;;;4.15;2.63;;;10.00;99.90;;;;;;5052861;28;20040;-83
2022/04/05 10:41:38;;;;;;;5.40;2.95;;;10.00;99.90;;;;;;5052960;28;20048;-86
2022/04/05 10:44:16;;;;;;;4.70;2.80;;;10.10;99.90;;;;;;5036522;28;20389;-82
2022/04/05 10:46:50;;;;;;;4.63;2.90;;;10.20;99.90;;;;;;5052785;28;20128;-84
2022/04/05 10:49:33;;;;;;;4.10;2.50;;;10.20;99.90;;;;;;5053579;28;20044;-84
2022/04/05 10:52:23;;;;;;;4.53;2.15;;;10.20;99.90;;;;;;5052446;28;20056;-83
2022/04/05 10:55:06;;;;;;;3.50;2.30;;;10.50;99.90;;;;;;5036056;28;20420;-82
2022/04/05 10:57:34;;;;;;;4.50;2.40;;;10.50;99.90;;;;;;5053072;28;20045;-85
2022/04/05 11:00:02;;;;;;;4.10;2.90;;;10.50;99.90;;;;;;5056699;28;20041;-83
2022/04/05 11:02:45;;;;;;;4.68;3.08;;;10.60;99.90;;;;;;5056022;28;20041;-83
2022/04/05 11:05:14;;;;;;;4.80;2.70;;;10.60;99.90;;;;;;5056118;28;20041;-80
2022/04/05 11:07:51;;;;;;;4.35;2.78;;;10.60;99.90;;;;;;5055920;28;20052;-82
2022/04/05 11:10:25;;;;;;;4.75;3.10;;;10.60;99.90;;;;;;5055946;28;20037;-82
2022/04/05 11:13:05;;;;;;;5.15;2.88;;;10.60;99.90;;;;;;5056290;28;20073;-82
2022/04/05 11:15:51;;;;;;;7.13;3.60;;;10.40;99.90;;;;;;5056153;28;20044;-84
2022/04/05 11:18:22;;;;;;;8.23;4.40;;;10.40;99.90;;;;;;5055809;28;20075;-83
2022/04/05 11:20:51;;;;;;;8.15;4.28;;;10.40;99.90;;;;;;5055821;28;20489;-84
2022/04/05 11:23:18;;;;;;;7.88;5.07;;;10.30;99.90;;;;;;5056220;28;20084;-82
2022/04/05 11:25:45;;;;;;;10.68;5.07;;;10.20;99.90;;;;;;5055777;28;20077;-84
2022/04/05 11:28:21;;;;;;;10.88;5.72;;;10.30;99.90;;;;;;5056296;28;20049;-84
2022/04/05 11:30:52;;;;;;;10.77;5.65;;;10.30;99.90;;;;;;5055904;28;20123;-83
2022/04/05 11:33:31;;;;;;;15.18;5.75;;;10.20;99.90;;;;;;5055771;28;20480;-83
2022/04/05 11:35:59;;;;;;;13.48;6.15;;;10.30;99.90;;;;;;5055316;28;20159;-83
2022/04/05 11:38:31;;;;;;;13.57;6.72;;;10.30;99.90;;;;;;5039112;28;20045;-83
2022/04/05 11:41:18;;;;;;;12.45;5.82;;;10.40;99.90;;;;;;5039103;28;20048;-85
2022/04/05 11:43:46;;;;;;;11.43;5.20;;;10.30;99.90;;;;;;5055607;28;20051;-84
2022/04/05 11:46:21;;;;;;;15.23;5.93;;;10.30;99.90;;;;;;5055953;28;20521;-82
2022/04/05 11:48:49;;;;;;;12.23;5.55;;;10.40;99.90;;;;;;5055765;28;20055;-82
2022/04/05 11:51:18;;;;;;;12.88;5.03;;;10.50;99.90;;;;;;5055645;28;20048;-84
2022/04/05 11:53:45;;;;;;;12.82;5.40;;;10.60;99.90;;;;;;5055831;28;20493;-83
2022/04/05 11:56:20;;;;;;;9.65;5.07;;;10.60;99.90;;;;;;5055527;28;20441;-80
2022/04/05 11:58:59;;;;;;;10.32;4.75;;;10.60;99.90;;;;;;5055224;28;20128;-82
2022/04/05 12:01:31;;;;;;;11.65;5.70;;;10.70;99.90;;;;;;5055100;28;20040;-84
2022/04/05 12:04:13;;;;;;;10.48;4.55;;;10.70;99.90;;;;;;5054994;28;20079;-83
2022/04/05 12:06:46;;;;;;;10.35;4.47;;;10.60;99.90;;;;;;5055397;28;20087;-83
2022/04/05 12:09:18;;;;;;;7.88;4.03;;;10.60;99.90;;;;;;5054669;28;20041;-82
2022/04/05 12:11:47;;;;;;;12.00;4.72;;;10.60;99.90;;;;;;5054204;28;20120;-81
2022/04/05 12:14:19;;;;;;;7.95;3.20;;;10.60;99.90;;;;;;5055746;28;20055;-85
2022/04/05 12:17:00;;;;;;;9.80;3.28;;;10.60;99.90;;;;;;5055405;28;20468;-82
2022/04/05 12:19:37;;;;;;;12.57;3.10;;;10.60;99.90;;;;;;5057302;28;20049;-83
2022/04/05 12:22:07;;;;;;;10.40;4.97;;;10.50;99.90;;;;;;5054737;28;20076;-84
2022/04/05 12:24:50;;;;;;;12.07;5.38;;;10.40;99.90;;;;;;5055347;28;20065;-84
2022/04/05 12:27:18;;;;;;;15.55;5.22;;;10.30;99.90;;;;;;5055000;28;20048;-84
2022/04/05 12:29:44;;;;;;;18.25;6.30;;;10.20;99.90;;;;;;5054504;28;20045;-85
2022/04/05 12:32:11;;;;;;;20.88;6.45;;;10.10;99.90;;;;;;5055161;28;20392;-85
2022/04/05 12:34:38;;;;;;;21.27;8.73;;;10.10;99.90;;;;;;5054198;28;20049;-84
2022/04/05 12:37:12;;;;;;;19.90;6.82;;;10.00;99.90;;;;;;5054515;28;20041;-84
2022/04/05 12:39:43;;;;;;;19.90;7.10;;;10.00;99.90;;;;;;5054824;28;20056;-85
2022/04/05 12:42:10;;;;;;;25.88;8.05;;;10.00;99.90;;;;;;5054980;28;20017;-84
2022/04/05 12:44:41;;;;;;;23.85;7.70;;;10.00;99.90;;;;;;5055046;28;20087;-84
2022/04/05 12:47:11;;;;;;;21.88;8.88;;;10.00;99.90;;;;;;5054501;28;20069;-84
2022/04/05 12:49:40;;;;;;;25.02;8.07;;;10.00;99.90;;;;;;5054565;28;20154;-85
2022/04/05 12:52:13;;;;;;;18.60;7.68;;;10.10;99.90;;;;;;5037815;28;20045;-84
2022/04/05 12:55:12;;;;;;;19.02;7.32;;;10.00;99.90;;;;;;5054295;28;20064;-84
2022/04/05 12:57:51;;;;;;;21.92;7.55;;;10.10;99.90;;;;;;5039383;28;20045;-85
2022/04/05 13:00:23;;;;;;;19.38;7.80;;;10.20;99.90;;;;;;5054225;28;20044;-84
2022/04/05 13:02:55;;;;;;;20.80;6.95;;;10.20;99.90;;;;;;5054352;28;20037;-84
2022/04/05 13:08:26;;;;;;;21.25;7.43;;;10.30;99.90;;;;;;5054299;28;20044;-84
2022/04/05 13:10:52;;;;;;;17.05;7.00;;;10.30;99.90;;;;;;5054090;28;20045;-81
2022/04/05 13:13:25;;;;;;;18.20;6.03;;;10.30;99.90;;;;;;5055519;28;20044;-83
2022/04/05 13:15:59;;;;;;;20.70;6.38;;;10.30;99.90;;;;;;5054003;28;20045;-83
2022/04/05 13:18:35;;;;;;;12.63;5.47;;;10.30;99.90;;;;;;5053723;28;20037;-83
2022/04/05 13:21:03;;;;;;;22.02;6.55;;;10.30;99.90;;;;;;5053581;28;20353;-83
2022/04/05 13:23:31;;;;;;;15.55;6.70;;;10.30;99.90;;;;;;5054010;28;20508;-83
2022/04/05 13:25:58;;;;;;;18.65;7.00;;;10.30;99.90;;;;;;5037061;28;20040;-84
2022/04/05 13:28:35;;;;;;;15.82;5.85;;;10.30;99.90;;;;;;5053928;28;20052;-83
2022/04/05 13:31:09;;;;;;;16.92;6.47;;;10.30;99.90;;;;;;5054201;28;20047;-83
2022/04/05 13:33:35;;;;;;;16.75;5.68;;;10.30;99.90;;;;;;5053767;28;20040;-83
2022/04/05 13:36:01;;;;;;;15.20;6.50;;;10.30;99.90;;;;;;5053655;28;20036;-83
2022/04/05 13:38:27;;;;;;;18.15;6.13;;;10.40;99.90;;;;;;5053799;28;20101;-84
2022/04/05 13:40:54;;;;;;;15.43;6.82;;;10.30;99.90;;;;;;5053763;28;20041;-85
2022/04/05 13:43:20;;;;;;;21.23;7.40;;;10.30;99.90;;;;;;5053857;28;20049;-84
2022/04/05 13:45:45;;;;;;;13.93;7.35;;;10.40;99.90;;;;;;5054410;28;20070;-84
2022/04/05 13:48:11;;;;;;;19.95;6.45;;;10.40;99.90;;;;;;5053577;28;20072;-83
2022/04/05 13:50:36;;;;;;;16.10;7.20;;;10.40;99.90;;;;;;5053620;28;20090;-84
2022/04/05 13:53:02;;;;;;;12.68;5.57;;;10.40;99.90;;;;;;5036949;28;20041;-83
2022/04/05 13:55:28;;;;;;;11.50;5.75;;;10.40;99.90;;;;;;5053527;28;20045;-82
2022/04/05 13:57:53;;;;;;;12.40;6.00;;;10.40;99.90;;;;;;5053358;28;20072;-84
2022/04/05 14:00:19;;;;;;;11.65;6.22;;;10.40;99.90;;;;;;5053546;28;20071;-84
2022/04/05 14:02:44;;;;;;;14.48;6.13;;;10.40;99.90;;;;;;5053151;28;20477;-84
2022/04/05 14:05:10;;;;;;;18.02;6.43;;;10.40;99.90;;;;;;5053198;28;20051;-83
2022/04/05 14:07:40;;;;;;;16.13;6.10;;;10.50;99.90;;;;;;5053020;28;20427;-83
2022/04/05 14:10:06;;;;;;;16.38;6.32;;;10.50;99.90;;;;;;5052668;28;20087;-83
2022/04/05 14:12:32;;;;;;;17.55;6.85;;;10.50;99.90;;;;;;5052874;28;20055;-85
2022/04/05 14:14:57;;;;;;;12.20;6.07;;;10.50;99.90;;;;;;5052938;28;20044;-84
2022/04/05 14:17:23;;;;;;;15.50;6.20;;;10.50;99.90;;;;;;5052905;28;20087;-84
2022/04/05 14:19:49;;;;;;;17.13;7.43;;;10.50;99.90;;;;;;5053121;28;20041;-84
2022/04/05 14:22:15;;;;;;;14.40;6.30;;;10.50;99.90;;;;;;5053722;28;20040;-83
2022/04/05 14:24:41;;;;;;;15.45;6.82;;;10.50;99.90;;;;;;5053037;28;20465;-83
2022/04/05 14:27:07;;;;;;;15.40;6.15;;;10.60;99.90;;;;;;5053594;28;20041;-83
2022/04/05 14:29:33;;;;;;;13.68;7.75;;;10.60;99.90;;;;;;5053189;28;20048;-83
2022/04/05 14:32:00;;;;;;;13.98;5.10;;;10.70;99.90;;;;;;5054827;28;20118;-84
2022/04/05 14:34:26;;;;;;;19.13;5.80;;;10.80;99.90;;;;;;5057696;28;20045;-83
2022/04/05 14:36:51;;;;;;;18.48;6.68;;;10.80;99.90;;;;;;5056727;28;20045;-83
2022/04/05 14:39:17;;;;;;;12.90;6.22;;;10.90;99.90;;;;;;5057205;28;20097;-82
2022/04/05 14:41:42;;;;;;;15.05;5.95;;;10.90;99.90;;;;;;5056846;28;20389;-84
2022/04/05 14:44:08;;;;;;;18.35;7.05;;;10.90;99.90;;;;;;5056711;28;20488;-85
2022/04/05 14:46:35;;;;;;;20.70;6.55;;;10.80;99.90;;;;;;5040311;28;20048;-84
2022/04/05 14:49:02;;;;;;;16.88;5.93;;;10.80;99.90;;;;;;5056774;28;20037;-83
2022/04/05 14:51:33;;;;;;;16.05;6.68;;;10.60;99.90;;;;;;5057298;28;20083;-84
2022/04/05 14:53:59;;;;;;;15.10;6.68;;;10.60;99.90;;;;;;5059731;28;20048;-84
2022/04/05 14:56:30;;;;;;;23.33;6.90;;;10.50;99.90;;;;;;5059550;28;20041;-83
2022/04/05 14:58:55;;;;;;;11.32;5.97;;;10.50;99.90;;;;;;5065244;28;20041;-83
2022/04/05 15:01:21;;;;;;;16.08;6.80;;;10.50;99.90;;;;;;5069335;28;20033;-85
2022/04/05 15:03:47;;;;;;;11.95;5.25;;;10.50;99.90;;;;;;5070838;28;20040;-84
2022/04/05 15:06:14;;;;;;;15.13;5.82;;;10.40;99.90;;;;;;5054127;28;20047;-84
2022/04/05 15:08:42;;;;;;;13.35;6.85;;;10.40;99.90;;;;;;5080448;28;20048;-84
2022/04/05 15:11:08;;;;;;;15.55;5.22;;;10.40;99.90;;;;;;5059686;28;20183;-85
2022/04/05 15:13:34;;;;;;;16.52;7.03;;;10.30;99.90;;;;;;5058390;28;20477;-82
2022/04/05 15:16:03;;;;;;;17.73;7.85;;;10.30;99.90;;;;;;5056183;28;20117;-84
2022/04/05 15:18:28;;;;;;;19.23;6.32;;;10.30;99.90;;;;;;5056205;28;20044;-84
2022/04/05 15:20:55;;;;;;;18.17;8.10;;;10.20;99.90;;;;;;5056017;28;20045;-83
2022/04/05 15:23:25;;;;;;;17.38;6.78;;;10.20;99.90;;;;;;5057770;28;20037;-84
2022/04/05 15:25:51;;;;;;;18.25;6.80;;;10.20;99.90;;;;;;5057639;28;20048;-84
2022/04/05 15:28:17;;;;;;;14.07;5.95;;;10.20;99.90;;;;;;5057484;28;20106;-83
2022/04/05 15:30:43;;;;;;;17.17;6.53;;;10.20;99.90;;;;;;5057515;28;20484;-85
2022/04/05 15:33:09;;;;;;;16.38;7.03;;;10.20;99.90;;;;;;5058596;28;20033;-85
2022/04/05 15:35:36;;;;;;;19.30;7.05;;;10.10;99.90;;;;;;5057142;28;20036;-83
2022/04/05 15:38:03;;;;;;;15.43;6.53;;;10.20;99.90;;;;;;5057574;28;20053;-84
2022/04/05 15:40:29;;;;;;;18.35;7.30;;;10.10;99.90;;;;;;5057888;28;20464;-85
2022/04/05 15:42:55;;;;;;;24.55;6.03;;;10.10;99.90;;;;;;5057981;28;20029;-84
2022/04/05 15:45:20;;;;;;;14.82;6.00;;;10.00;99.90;;;;;;5058929;28;20045;-84
2022/04/05 15:47:48;;;;;;;19.08;7.18;;;10.00;99.90;;;;;;5058510;28;20430;-85
2022/04/05 15:50:14;;;;;;;14.20;6.10;;;9.90;99.90;;;;;;5059860;28;20082;-84
2022/04/05 15:52:41;;;;;;;19.02;8.57;;;9.90;99.90;;;;;;5040471;28;20439;-84
2022/04/05 15:55:07;;;;;;;21.63;6.82;;;9.90;99.90;;;;;;5058611;28;20037;-85
2022/04/05 15:57:34;;;;;;;20.58;8.23;;;9.80;99.90;;;;;;5057342;28;20040;-84
2022/04/05 16:00:00;;;;;;;13.93;5.38;;;9.80;99.90;;;;;;5057534;28;20103;-85